sensor_id;sensor_type;location;lat;lon;timestamp;P1;durP1;ratioP1;P2;durP2;ratioP2
9838;SDS011;4958;48.150;11.506;2022-08-21T00:01:42;2.17;;;1.73;;
9838;SDS011;4958;48.150;11.506;2022-08-21T00:04:09;1.50;;;1.40;;
9838;SDS011;4958;48.150;11.506;2022-08-21T00:06:36;1.40;;;1.30;;
9838;SDS011;4958;48.150;11.506;2022-08-21T00:09:03;1.75;;;1.65;;
9838;SDS011;4958;48.150;11.506;2022-08-21T00:11:32;1.63;;;1.52;;
9838;SDS011;4958;48.150;11.506;2022-08-21T00:14:00;2.65;;;1.90;;
9838;SDS011;4958;48.150;11.506;2022-08-21T00:16:28;1.63;;;1.52;;
9838;SDS011;4958;48.150;11.506;2022-08-21T00:18:54;2.05;;;1.70;;
9838;SDS011;4958;48.150;11.506;2022-08-21T00:21:21;1.70;;;1.60;;
9838;SDS011;4958;48.150;11.506;2022-08-21T00:23:47;1.80;;;1.70;;
9838;SDS011;4958;48.150;11.506;2022-08-21T00:26:14;1.55;;;1.45;;
9838;SDS011;4958;48.150;11.506;2022-08-21T00:28:40;3.08;;;1.50;;
9838;SDS011;4958;48.150;11.506;2022-08-21T00:31:07;3.28;;;1.55;;
9838;SDS011;4958;48.150;11.506;2022-08-21T00:33:34;1.40;;;1.25;;
9838;SDS011;4958;48.150;11.506;2022-08-21T00:36:01;1.70;;;1.40;;
9838;SDS011;4958;48.150;11.506;2022-08-21T00:38:29;1.50;;;1.40;;
9838;SDS011;4958;48.150;11.506;2022-08-21T00:40:56;1.83;;;1.63;;
9838;SDS011;4958;48.150;11.506;2022-08-21T00:43:26;1.60;;;1.50;;
9838;SDS011;4958;48.150;11.506;2022-08-21T00:45:54;2.28;;;1.40;;
9838;SDS011;4958;48.150;11.506;2022-08-21T00:48:22;2.00;;;1.38;;
9838;SDS011;4958;48.150;11.506;2022-08-21T00:50:52;1.45;;;1.35;;
9838;SDS011;4958;48.150;11.506;2022-08-21T00:53:22;1.30;;;1.20;;
9838;SDS011;4958;48.150;11.506;2022-08-21T00:55:51;1.30;;;1.20;;
9838;SDS011;4958;48.150;11.506;2022-08-21T00:58:18;1.13;;;1.02;;
9838;SDS011;4958;48.150;11.506;2022-08-21T01:00:46;1.30;;;1.10;;
9838;SDS011;4958;48.150;11.506;2022-08-21T01:03:15;1.52;;;1.13;;
9838;SDS011;4958;48.150;11.506;2022-08-21T01:05:43;1.10;;;1.10;;
9838;SDS011;4958;48.150;11.506;2022-08-21T01:08:12;1.23;;;1.20;;
9838;SDS011;4958;48.150;11.506;2022-08-21T01:10:39;1.30;;;1.20;;
9838;SDS011;4958;48.150;11.506;2022-08-21T01:13:07;1.27;;;1.15;;
9838;SDS011;4958;48.150;11.506;2022-08-21T01:15:35;1.30;;;1.20;;
9838;SDS011;4958;48.150;11.506;2022-08-21T01:18:05;1.33;;;1.30;;
9838;SDS011;4958;48.150;11.506;2022-08-21T01:20:34;1.58;;;1.40;;
9838;SDS011;4958;48.150;11.506;2022-08-21T01:23:04;1.45;;;1.35;;
9838;SDS011;4958;48.150;11.506;2022-08-21T01:25:31;1.40;;;1.30;;
9838;SDS011;4958;48.150;11.506;2022-08-21T01:27:58;1.38;;;1.27;;
9838;SDS011;4958;48.150;11.506;2022-08-21T01:30:30;1.20;;;1.17;;
9838;SDS011;4958;48.150;11.506;2022-08-21T01:33:02;1.30;;;1.20;;
9838;SDS011;4958;48.150;11.506;2022-08-21T01:35:29;1.98;;;1.13;;
9838;SDS011;4958;48.150;11.506;2022-08-21T01:37:55;1.50;;;1.40;;
9838;SDS011;4958;48.150;11.506;2022-08-21T01:40:23;1.60;;;1.50;;
9838;SDS011;4958;48.150;11.506;2022-08-21T01:42:49;1.13;;;1.10;;
9838;SDS011;4958;48.150;11.506;2022-08-21T01:45:16;1.23;;;1.20;;
9838;SDS011;4958;48.150;11.506;2022-08-21T01:47:42;1.65;;;1.35;;
9838;SDS011;4958;48.150;11.506;2022-08-21T01:50:12;2.15;;;1.20;;
9838;SDS011;4958;48.150;11.506;2022-08-21T01:52:41;1.45;;;1.33;;
9838;SDS011;4958;48.150;11.506;2022-08-21T01:55:08;2.08;;;1.23;;
9838;SDS011;4958;48.150;11.506;2022-08-21T01:57:37;2.13;;;1.10;;
9838;SDS011;4958;48.150;11.506;2022-08-21T02:00:04;1.77;;;1.10;;
9838;SDS011;4958;48.150;11.506;2022-08-21T02:02:33;2.15;;;1.30;;
9838;SDS011;4958;48.150;11.506;2022-08-21T02:04:59;2.13;;;1.30;;
9838;SDS011;4958;48.150;11.506;2022-08-21T02:07:26;1.90;;;1.10;;
9838;SDS011;4958;48.150;11.506;2022-08-21T02:09:52;2.05;;;1.38;;
9838;SDS011;4958;48.150;11.506;2022-08-21T02:12:19;2.72;;;1.17;;
9838;SDS011;4958;48.150;11.506;2022-08-21T02:14:46;1.30;;;1.20;;
9838;SDS011;4958;48.150;11.506;2022-08-21T02:17:13;1.40;;;1.30;;
9838;SDS011;4958;48.150;11.506;2022-08-21T02:19:39;1.00;;;1.00;;
9838;SDS011;4958;48.150;11.506;2022-08-21T02:22:05;1.67;;;1.48;;
9838;SDS011;4958;48.150;11.506;2022-08-21T02:24:33;1.30;;;1.20;;
9838;SDS011;4958;48.150;11.506;2022-08-21T02:26:59;1.30;;;1.20;;
9838;SDS011;4958;48.150;11.506;2022-08-21T02:29:26;1.50;;;1.40;;
9838;SDS011;4958;48.150;11.506;2022-08-21T02:31:53;1.10;;;1.10;;
9838;SDS011;4958;48.150;11.506;2022-08-21T02:34:20;1.50;;;1.40;;
9838;SDS011;4958;48.150;11.506;2022-08-21T02:36:46;1.20;;;1.10;;
9838;SDS011;4958;48.150;11.506;2022-08-21T02:39:12;1.92;;;1.33;;
9838;SDS011;4958;48.150;11.506;2022-08-21T02:41:39;1.40;;;1.30;;
9838;SDS011;4958;48.150;11.506;2022-08-21T02:44:05;3.40;;;1.30;;
9838;SDS011;4958;48.150;11.506;2022-08-21T02:46:32;1.20;;;1.10;;
9838;SDS011;4958;48.150;11.506;2022-08-21T02:48:59;2.88;;;1.40;;
9838;SDS011;4958;48.150;11.506;2022-08-21T02:51:26;2.15;;;1.58;;
9838;SDS011;4958;48.150;11.506;2022-08-21T02:53:52;2.17;;;1.33;;
9838;SDS011;4958;48.150;11.506;2022-08-21T02:56:19;1.08;;;1.05;;
9838;SDS011;4958;48.150;11.506;2022-08-21T02:58:48;1.15;;;1.15;;
9838;SDS011;4958;48.150;11.506;2022-08-21T03:01:17;1.50;;;1.40;;
9838;SDS011;4958;48.150;11.506;2022-08-21T03:03:45;1.40;;;1.30;;
9838;SDS011;4958;48.150;11.506;2022-08-21T03:06:16;2.35;;;1.35;;
9838;SDS011;4958;48.150;11.506;2022-08-21T03:08:43;1.52;;;1.30;;
9838;SDS011;4958;48.150;11.506;2022-08-21T03:11:11;1.42;;;1.33;;
9838;SDS011;4958;48.150;11.506;2022-08-21T03:13:38;1.65;;;1.30;;
9838;SDS011;4958;48.150;11.506;2022-08-21T03:16:04;1.40;;;1.30;;
9838;SDS011;4958;48.150;11.506;2022-08-21T03:18:31;1.90;;;1.40;;
9838;SDS011;4958;48.150;11.506;2022-08-21T03:20:58;2.25;;;1.30;;
9838;SDS011;4958;48.150;11.506;2022-08-21T03:23:26;1.50;;;1.40;;
9838;SDS011;4958;48.150;11.506;2022-08-21T03:25:52;1.88;;;1.50;;
9838;SDS011;4958;48.150;11.506;2022-08-21T03:28:20;1.90;;;1.40;;
9838;SDS011;4958;48.150;11.506;2022-08-21T03:30:48;1.55;;;1.27;;
9838;SDS011;4958;48.150;11.506;2022-08-21T03:33:16;1.60;;;1.50;;
9838;SDS011;4958;48.150;11.506;2022-08-21T03:35:42;1.38;;;1.27;;
9838;SDS011;4958;48.150;11.506;2022-08-21T03:38:11;1.63;;;1.52;;
9838;SDS011;4958;48.150;11.506;2022-08-21T03:40:40;1.38;;;1.27;;
9838;SDS011;4958;48.150;11.506;2022-08-21T03:43:06;1.50;;;1.40;;
9838;SDS011;4958;48.150;11.506;2022-08-21T03:45:34;1.30;;;1.20;;
9838;SDS011;4958;48.150;11.506;2022-08-21T03:48:02;1.40;;;1.30;;
9838;SDS011;4958;48.150;11.506;2022-08-21T03:50:31;1.98;;;1.42;;
9838;SDS011;4958;48.150;11.506;2022-08-21T03:52:59;4.82;;;1.60;;
9838;SDS011;4958;48.150;11.506;2022-08-21T03:55:27;1.55;;;1.45;;
9838;SDS011;4958;48.150;11.506;2022-08-21T03:57:55;2.33;;;1.35;;
9838;SDS011;4958;48.150;11.506;2022-08-21T04:00:21;2.45;;;1.48;;
9838;SDS011;4958;48.150;11.506;2022-08-21T04:02:48;2.80;;;1.50;;
9838;SDS011;4958;48.150;11.506;2022-08-21T04:05:15;1.70;;;1.60;;
9838;SDS011;4958;48.150;11.506;2022-08-21T04:07:51;2.03;;;1.63;;
9838;SDS011;4958;48.150;11.506;2022-08-21T04:10:18;2.13;;;1.48;;
9838;SDS011;4958;48.150;11.506;2022-08-21T04:12:45;1.60;;;1.50;;
9838;SDS011;4958;48.150;11.506;2022-08-21T04:15:13;2.60;;;1.50;;
9838;SDS011;4958;48.150;11.506;2022-08-21T04:17:39;1.58;;;1.48;;
9838;SDS011;4958;48.150;11.506;2022-08-21T04:20:06;1.73;;;1.35;;
9838;SDS011;4958;48.150;11.506;2022-08-21T04:22:33;1.50;;;1.40;;
9838;SDS011;4958;48.150;11.506;2022-08-21T04:24:59;1.50;;;1.40;;
9838;SDS011;4958;48.150;11.506;2022-08-21T04:27:26;1.45;;;1.35;;
9838;SDS011;4958;48.150;11.506;2022-08-21T04:29:52;1.63;;;1.40;;
9838;SDS011;4958;48.150;11.506;2022-08-21T04:32:22;3.30;;;1.60;;
9838;SDS011;4958;48.150;11.506;2022-08-21T04:34:57;2.38;;;1.50;;
9838;SDS011;4958;48.150;11.506;2022-08-21T04:37:24;2.88;;;1.60;;
9838;SDS011;4958;48.150;11.506;2022-08-21T04:39:51;1.58;;;1.48;;
9838;SDS011;4958;48.150;11.506;2022-08-21T04:42:17;2.15;;;1.58;;
9838;SDS011;4958;48.150;11.506;2022-08-21T04:44:43;1.48;;;1.38;;
9838;SDS011;4958;48.150;11.506;2022-08-21T04:47:10;1.60;;;1.50;;
9838;SDS011;4958;48.150;11.506;2022-08-21T04:49:38;1.52;;;1.42;;
9838;SDS011;4958;48.150;11.506;2022-08-21T04:52:05;3.55;;;1.70;;
9838;SDS011;4958;48.150;11.506;2022-08-21T04:54:31;2.83;;;1.58;;
9838;SDS011;4958;48.150;11.506;2022-08-21T04:56:59;1.95;;;1.50;;
9838;SDS011;4958;48.150;11.506;2022-08-21T04:59:30;3.33;;;1.40;;
9838;SDS011;4958;48.150;11.506;2022-08-21T05:01:59;1.92;;;1.50;;
9838;SDS011;4958;48.150;11.506;2022-08-21T05:04:27;1.33;;;1.30;;
9838;SDS011;4958;48.150;11.506;2022-08-21T05:06:58;2.53;;;1.65;;
9838;SDS011;4958;48.150;11.506;2022-08-21T05:09:27;1.38;;;1.30;;
9838;SDS011;4958;48.150;11.506;2022-08-21T05:11:55;1.55;;;1.45;;
9838;SDS011;4958;48.150;11.506;2022-08-21T05:14:22;2.72;;;1.60;;
9838;SDS011;4958;48.150;11.506;2022-08-21T05:16:50;2.60;;;1.40;;
9838;SDS011;4958;48.150;11.506;2022-08-21T05:19:16;1.48;;;1.33;;
9838;SDS011;4958;48.150;11.506;2022-08-21T05:21:43;2.00;;;1.80;;
9838;SDS011;4958;48.150;11.506;2022-08-21T05:24:13;1.30;;;1.25;;
9838;SDS011;4958;48.150;11.506;2022-08-21T05:26:40;1.63;;;1.52;;
9838;SDS011;4958;48.150;11.506;2022-08-21T05:29:07;1.48;;;1.38;;
9838;SDS011;4958;48.150;11.506;2022-08-21T05:31:33;1.50;;;1.40;;
9838;SDS011;4958;48.150;11.506;2022-08-21T05:34:00;2.20;;;1.60;;
9838;SDS011;4958;48.150;11.506;2022-08-21T05:36:26;2.75;;;1.50;;
9838;SDS011;4958;48.150;11.506;2022-08-21T05:38:53;2.90;;;1.50;;
9838;SDS011;4958;48.150;11.506;2022-08-21T05:41:20;1.25;;;1.23;;
9838;SDS011;4958;48.150;11.506;2022-08-21T05:43:47;1.58;;;1.48;;
9838;SDS011;4958;48.150;11.506;2022-08-21T05:46:14;1.63;;;1.52;;
9838;SDS011;4958;48.150;11.506;2022-08-21T05:48:40;3.63;;;1.50;;
9838;SDS011;4958;48.150;11.506;2022-08-21T05:51:08;1.50;;;1.40;;
9838;SDS011;4958;48.150;11.506;2022-08-21T05:53:37;1.60;;;1.50;;
9838;SDS011;4958;48.150;11.506;2022-08-21T05:56:04;2.50;;;1.42;;
9838;SDS011;4958;48.150;11.506;2022-08-21T05:58:33;1.50;;;1.40;;
9838;SDS011;4958;48.150;11.506;2022-08-21T06:00:59;1.80;;;1.48;;
9838;SDS011;4958;48.150;11.506;2022-08-21T06:03:27;3.90;;;1.80;;
9838;SDS011;4958;48.150;11.506;2022-08-21T06:05:56;1.60;;;1.50;;
9838;SDS011;4958;48.150;11.506;2022-08-21T06:08:24;1.60;;;1.50;;
9838;SDS011;4958;48.150;11.506;2022-08-21T06:10:51;2.30;;;1.38;;
9838;SDS011;4958;48.150;11.506;2022-08-21T06:13:19;2.20;;;1.48;;
9838;SDS011;4958;48.150;11.506;2022-08-21T06:15:48;1.55;;;1.42;;
9838;SDS011;4958;48.150;11.506;2022-08-21T06:18:15;3.10;;;1.60;;
9838;SDS011;4958;48.150;11.506;2022-08-21T06:20:42;2.58;;;1.60;;
9838;SDS011;4958;48.150;11.506;2022-08-21T06:23:08;2.30;;;1.50;;
9838;SDS011;4958;48.150;11.506;2022-08-21T06:25:35;2.05;;;1.58;;
9838;SDS011;4958;48.150;11.506;2022-08-21T06:28:02;1.83;;;1.60;;
9838;SDS011;4958;48.150;11.506;2022-08-21T06:30:30;1.67;;;1.58;;
9838;SDS011;4958;48.150;11.506;2022-08-21T06:32:58;2.47;;;1.73;;
9838;SDS011;4958;48.150;11.506;2022-08-21T06:35:24;1.60;;;1.50;;
9838;SDS011;4958;48.150;11.506;2022-08-21T06:37:51;2.10;;;1.65;;
9838;SDS011;4958;48.150;11.506;2022-08-21T06:40:17;1.85;;;1.75;;
9838;SDS011;4958;48.150;11.506;2022-08-21T06:42:44;2.50;;;1.95;;
9838;SDS011;4958;48.150;11.506;2022-08-21T06:45:10;2.72;;;1.70;;
9838;SDS011;4958;48.150;11.506;2022-08-21T06:47:37;2.75;;;1.80;;
9838;SDS011;4958;48.150;11.506;2022-08-21T06:50:05;4.00;;;1.90;;
9838;SDS011;4958;48.150;11.506;2022-08-21T06:52:33;3.20;;;1.92;;
9838;SDS011;4958;48.150;11.506;2022-08-21T06:54:59;2.53;;;2.10;;
9838;SDS011;4958;48.150;11.506;2022-08-21T06:57:26;2.13;;;1.77;;
9838;SDS011;4958;48.150;11.506;2022-08-21T06:59:52;3.35;;;2.00;;
9838;SDS011;4958;48.150;11.506;2022-08-21T07:02:19;2.53;;;1.95;;
9838;SDS011;4958;48.150;11.506;2022-08-21T07:04:45;1.70;;;1.60;;
9838;SDS011;4958;48.150;11.506;2022-08-21T07:07:13;4.20;;;1.80;;
9838;SDS011;4958;48.150;11.506;2022-08-21T07:09:39;1.90;;;1.80;;
9838;SDS011;4958;48.150;11.506;2022-08-21T07:12:06;3.97;;;2.08;;
9838;SDS011;4958;48.150;11.506;2022-08-21T07:14:33;2.50;;;2.00;;
9838;SDS011;4958;48.150;11.506;2022-08-21T07:16:59;2.50;;;2.03;;
9838;SDS011;4958;48.150;11.506;2022-08-21T07:19:26;2.53;;;2.00;;
9838;SDS011;4958;48.150;11.506;2022-08-21T07:21:53;2.38;;;1.92;;
9838;SDS011;4958;48.150;11.506;2022-08-21T07:24:25;2.50;;;2.30;;
9838;SDS011;4958;48.150;11.506;2022-08-21T07:26:51;4.13;;;2.20;;
9838;SDS011;4958;48.150;11.506;2022-08-21T07:29:18;3.58;;;2.17;;
9838;SDS011;4958;48.150;11.506;2022-08-21T07:31:44;3.00;;;2.40;;
9838;SDS011;4958;48.150;11.506;2022-08-21T07:34:11;3.05;;;2.25;;
9838;SDS011;4958;48.150;11.506;2022-08-21T07:36:38;6.72;;;2.60;;
9838;SDS011;4958;48.150;11.506;2022-08-21T07:39:04;2.65;;;2.28;;
9838;SDS011;4958;48.150;11.506;2022-08-21T07:41:32;2.75;;;2.17;;
9838;SDS011;4958;48.150;11.506;2022-08-21T07:44:00;2.50;;;2.20;;
9838;SDS011;4958;48.150;11.506;2022-08-21T07:46:27;2.72;;;2.05;;
9838;SDS011;4958;48.150;11.506;2022-08-21T07:48:54;2.53;;;2.33;;
9838;SDS011;4958;48.150;11.506;2022-08-21T07:51:22;2.85;;;2.47;;
9838;SDS011;4958;48.150;11.506;2022-08-21T07:53:52;2.45;;;2.25;;
9838;SDS011;4958;48.150;11.506;2022-08-21T07:56:20;2.58;;;2.28;;
9838;SDS011;4958;48.150;11.506;2022-08-21T07:58:49;2.63;;;2.30;;
9838;SDS011;4958;48.150;11.506;2022-08-21T08:01:15;4.50;;;2.60;;
9838;SDS011;4958;48.150;11.506;2022-08-21T08:03:42;3.03;;;2.80;;
9838;SDS011;4958;48.150;11.506;2022-08-21T08:06:08;3.10;;;2.72;;
9838;SDS011;4958;48.150;11.506;2022-08-21T08:08:37;2.53;;;2.33;;
9838;SDS011;4958;48.150;11.506;2022-08-21T08:11:04;4.05;;;2.70;;
9838;SDS011;4958;48.150;11.506;2022-08-21T08:13:30;2.90;;;2.70;;
9838;SDS011;4958;48.150;11.506;2022-08-21T08:15:58;4.43;;;2.70;;
9838;SDS011;4958;48.150;11.506;2022-08-21T08:18:25;2.75;;;2.53;;
9838;SDS011;4958;48.150;11.506;2022-08-21T08:20:51;2.88;;;2.53;;
9838;SDS011;4958;48.150;11.506;2022-08-21T08:23:17;2.78;;;2.50;;
9838;SDS011;4958;48.150;11.506;2022-08-21T08:25:44;3.70;;;2.80;;
9838;SDS011;4958;48.150;11.506;2022-08-21T08:28:10;3.97;;;3.00;;
9838;SDS011;4958;48.150;11.506;2022-08-21T08:30:37;2.80;;;2.58;;
9838;SDS011;4958;48.150;11.506;2022-08-21T08:33:05;2.90;;;2.60;;
9838;SDS011;4958;48.150;11.506;2022-08-21T08:35:31;2.95;;;2.60;;
9838;SDS011;4958;48.150;11.506;2022-08-21T08:37:57;2.88;;;2.60;;
9838;SDS011;4958;48.150;11.506;2022-08-21T08:40:26;4.70;;;2.75;;
9838;SDS011;4958;48.150;11.506;2022-08-21T08:43:01;3.63;;;2.58;;
9838;SDS011;4958;48.150;11.506;2022-08-21T08:45:27;4.22;;;2.63;;
9838;SDS011;4958;48.150;11.506;2022-08-21T08:48:01;4.13;;;2.72;;
9838;SDS011;4958;48.150;11.506;2022-08-21T08:50:33;3.22;;;2.92;;
9838;SDS011;4958;48.150;11.506;2022-08-21T08:53:06;3.53;;;2.90;;
9838;SDS011;4958;48.150;11.506;2022-08-21T08:55:38;2.88;;;2.67;;
9838;SDS011;4958;48.150;11.506;2022-08-21T08:58:06;4.60;;;2.65;;
9838;SDS011;4958;48.150;11.506;2022-08-21T09:00:34;3.45;;;3.10;;
9838;SDS011;4958;48.150;11.506;2022-08-21T09:03:02;3.58;;;2.90;;
9838;SDS011;4958;48.150;11.506;2022-08-21T09:05:41;3.65;;;2.85;;
9838;SDS011;4958;48.150;11.506;2022-08-21T09:08:24;2.90;;;2.67;;
9838;SDS011;4958;48.150;11.506;2022-08-21T09:11:01;3.00;;;2.80;;
9838;SDS011;4958;48.150;11.506;2022-08-21T09:13:33;3.45;;;2.78;;
9838;SDS011;4958;48.150;11.506;2022-08-21T09:16:10;2.90;;;2.70;;
9838;SDS011;4958;48.150;11.506;2022-08-21T09:18:45;3.50;;;2.83;;
9838;SDS011;4958;48.150;11.506;2022-08-21T09:21:24;3.05;;;2.78;;
9838;SDS011;4958;48.150;11.506;2022-08-21T09:23:57;2.97;;;2.70;;
9838;SDS011;4958;48.150;11.506;2022-08-21T09:26:29;2.53;;;2.30;;
9838;SDS011;4958;48.150;11.506;2022-08-21T09:29:01;3.20;;;2.42;;
9838;SDS011;4958;48.150;11.506;2022-08-21T09:31:36;3.03;;;2.53;;
9838;SDS011;4958;48.150;11.506;2022-08-21T09:34:03;2.83;;;2.63;;
9838;SDS011;4958;48.150;11.506;2022-08-21T09:36:36;3.75;;;2.60;;
9838;SDS011;4958;48.150;11.506;2022-08-21T09:39:04;3.75;;;2.30;;
9838;SDS011;4958;48.150;11.506;2022-08-21T09:41:33;2.70;;;2.35;;
9838;SDS011;4958;48.150;11.506;2022-08-21T09:44:01;3.85;;;2.40;;
9838;SDS011;4958;48.150;11.506;2022-08-21T09:46:28;2.88;;;2.65;;
9838;SDS011;4958;48.150;11.506;2022-08-21T09:48:56;4.25;;;2.47;;
9838;SDS011;4958;48.150;11.506;2022-08-21T09:51:24;2.90;;;2.70;;
9838;SDS011;4958;48.150;11.506;2022-08-21T09:53:55;2.72;;;2.53;;
9838;SDS011;4958;48.150;11.506;2022-08-21T09:56:27;3.13;;;2.80;;
9838;SDS011;4958;48.150;11.506;2022-08-21T09:59:16;3.10;;;2.65;;
9838;SDS011;4958;48.150;11.506;2022-08-21T10:01:46;2.63;;;2.17;;
9838;SDS011;4958;48.150;11.506;2022-08-21T10:04:15;3.15;;;2.40;;
9838;SDS011;4958;48.150;11.506;2022-08-21T10:06:46;2.20;;;2.00;;
9838;SDS011;4958;48.150;11.506;2022-08-21T10:09:15;2.17;;;1.98;;
9838;SDS011;4958;48.150;11.506;2022-08-21T10:11:43;2.78;;;2.30;;
9838;SDS011;4958;48.150;11.506;2022-08-21T10:14:29;2.80;;;2.58;;
9838;SDS011;4958;48.150;11.506;2022-08-21T10:17:11;3.20;;;2.65;;
9838;SDS011;4958;48.150;11.506;2022-08-21T10:19:48;2.85;;;2.65;;
9838;SDS011;4958;48.150;11.506;2022-08-21T10:22:25;2.88;;;2.63;;
9838;SDS011;4958;48.150;11.506;2022-08-21T10:25:03;6.88;;;6.35;;
9838;SDS011;4958;48.150;11.506;2022-08-21T10:27:42;3.55;;;3.25;;
9838;SDS011;4958;48.150;11.506;2022-08-21T10:30:19;3.00;;;2.42;;
9838;SDS011;4958;48.150;11.506;2022-08-21T10:33:01;3.22;;;2.90;;
9838;SDS011;4958;48.150;11.506;2022-08-21T10:35:37;3.65;;;2.90;;
9838;SDS011;4958;48.150;11.506;2022-08-21T10:38:17;3.45;;;3.10;;
9838;SDS011;4958;48.150;11.506;2022-08-21T10:41:03;3.17;;;2.60;;
9838;SDS011;4958;48.150;11.506;2022-08-21T10:43:37;5.95;;;2.97;;
9838;SDS011;4958;48.150;11.506;2022-08-21T10:46:13;2.85;;;2.65;;
9838;SDS011;4958;48.150;11.506;2022-08-21T10:48:47;2.88;;;2.65;;
9838;SDS011;4958;48.150;11.506;2022-08-21T10:51:19;3.30;;;2.20;;
9838;SDS011;4958;48.150;11.506;2022-08-21T10:53:55;2.40;;;2.30;;
9838;SDS011;4958;48.150;11.506;2022-08-21T10:56:32;3.00;;;2.25;;
9838;SDS011;4958;48.150;11.506;2022-08-21T10:59:07;3.33;;;2.60;;
9838;SDS011;4958;48.150;11.506;2022-08-21T11:01:48;2.40;;;2.20;;
9838;SDS011;4958;48.150;11.506;2022-08-21T11:04:19;2.60;;;2.40;;
9838;SDS011;4958;48.150;11.506;2022-08-21T11:06:52;3.35;;;2.40;;
9838;SDS011;4958;48.150;11.506;2022-08-21T11:09:25;2.47;;;2.28;;
9838;SDS011;4958;48.150;11.506;2022-08-21T11:11:54;2.50;;;2.30;;
9838;SDS011;4958;48.150;11.506;2022-08-21T11:14:29;2.53;;;2.33;;
9838;SDS011;4958;48.150;11.506;2022-08-21T11:17:02;2.95;;;2.70;;
9838;SDS011;4958;48.150;11.506;2022-08-21T11:19:35;3.03;;;2.70;;
9838;SDS011;4958;48.150;11.506;2022-08-21T11:22:11;2.60;;;2.40;;
9838;SDS011;4958;48.150;11.506;2022-08-21T11:24:42;3.13;;;2.92;;
9838;SDS011;4958;48.150;11.506;2022-08-21T11:27:18;2.85;;;2.50;;
9838;SDS011;4958;48.150;11.506;2022-08-21T11:29:50;3.00;;;2.70;;
9838;SDS011;4958;48.150;11.506;2022-08-21T11:35:21;2.67;;;2.53;;
9838;SDS011;4958;48.150;11.506;2022-08-21T11:38:14;2.85;;;2.65;;
9838;SDS011;4958;48.150;11.506;2022-08-21T11:40:54;3.83;;;3.13;;
9838;SDS011;4958;48.150;11.506;2022-08-21T11:43:34;2.83;;;2.60;;
9838;SDS011;4958;48.150;11.506;2022-08-21T11:46:08;3.47;;;2.75;;
9838;SDS011;4958;48.150;11.506;2022-08-21T11:48:43;3.20;;;2.42;;
9838;SDS011;4958;48.150;11.506;2022-08-21T11:51:19;2.80;;;2.20;;
9838;SDS011;4958;48.150;11.506;2022-08-21T11:53:55;3.60;;;2.05;;
9838;SDS011;4958;48.150;11.506;2022-08-21T11:56:30;4.30;;;2.40;;
9838;SDS011;4958;48.150;11.506;2022-08-21T11:59:02;3.00;;;2.50;;
9838;SDS011;4958;48.150;11.506;2022-08-21T12:01:32;2.03;;;1.90;;
9838;SDS011;4958;48.150;11.506;2022-08-21T12:04:03;2.22;;;2.13;;
9838;SDS011;4958;48.150;11.506;2022-08-21T12:06:35;2.10;;;2.00;;
9838;SDS011;4958;48.150;11.506;2022-08-21T12:09:03;2.58;;;2.35;;
9838;SDS011;4958;48.150;11.506;2022-08-21T12:11:31;9.77;;;8.95;;
9838;SDS011;4958;48.150;11.506;2022-08-21T12:14:13;2.50;;;2.30;;
9838;SDS011;4958;48.150;11.506;2022-08-21T12:16:43;2.45;;;2.25;;
9838;SDS011;4958;48.150;11.506;2022-08-21T12:19:12;2.15;;;1.95;;
9838;SDS011;4958;48.150;11.506;2022-08-21T12:21:54;2.17;;;1.95;;
9838;SDS011;4958;48.150;11.506;2022-08-21T12:24:31;2.35;;;2.00;;
9838;SDS011;4958;48.150;11.506;2022-08-21T12:27:13;2.05;;;1.85;;
9838;SDS011;4958;48.150;11.506;2022-08-21T12:29:52;2.63;;;1.88;;
9838;SDS011;4958;48.150;11.506;2022-08-21T12:32:23;2.03;;;1.92;;
9838;SDS011;4958;48.150;11.506;2022-08-21T12:34:53;2.83;;;2.17;;
9838;SDS011;4958;48.150;11.506;2022-08-21T12:37:24;3.10;;;2.10;;
9838;SDS011;4958;48.150;11.506;2022-08-21T12:40:00;2.22;;;2.03;;
9838;SDS011;4958;48.150;11.506;2022-08-21T12:42:30;2.58;;;2.10;;
9838;SDS011;4958;48.150;11.506;2022-08-21T12:45:10;2.10;;;1.90;;
9838;SDS011;4958;48.150;11.506;2022-08-21T12:47:44;2.30;;;2.10;;
9838;SDS011;4958;48.150;11.506;2022-08-21T12:50:15;2.22;;;2.03;;
9838;SDS011;4958;48.150;11.506;2022-08-21T12:52:48;2.35;;;2.22;;
9838;SDS011;4958;48.150;11.506;2022-08-21T12:55:25;3.15;;;2.30;;
9838;SDS011;4958;48.150;11.506;2022-08-21T12:57:53;2.72;;;2.30;;
9838;SDS011;4958;48.150;11.506;2022-08-21T13:00:22;3.15;;;2.88;;
9838;SDS011;4958;48.150;11.506;2022-08-21T13:02:50;3.13;;;2.40;;
9838;SDS011;4958;48.150;11.506;2022-08-21T13:05:23;2.95;;;2.33;;
9838;SDS011;4958;48.150;11.506;2022-08-21T13:07:54;4.38;;;2.30;;
9838;SDS011;4958;48.150;11.506;2022-08-21T13:10:21;2.30;;;2.10;;
9838;SDS011;4958;48.150;11.506;2022-08-21T13:12:49;2.20;;;2.00;;
9838;SDS011;4958;48.150;11.506;2022-08-21T13:15:23;3.17;;;2.28;;
9838;SDS011;4958;48.150;11.506;2022-08-21T13:17:52;2.78;;;2.20;;
9838;SDS011;4958;48.150;11.506;2022-08-21T13:20:19;2.25;;;2.05;;
9838;SDS011;4958;48.150;11.506;2022-08-21T13:22:48;2.90;;;2.20;;
9838;SDS011;4958;48.150;11.506;2022-08-21T13:25:15;2.03;;;1.92;;
9838;SDS011;4958;48.150;11.506;2022-08-21T13:27:55;6.07;;;2.15;;
9838;SDS011;4958;48.150;11.506;2022-08-21T13:30:25;2.35;;;2.10;;
9838;SDS011;4958;48.150;11.506;2022-08-21T13:32:52;3.15;;;2.50;;
9838;SDS011;4958;48.150;11.506;2022-08-21T13:35:25;2.13;;;1.92;;
9838;SDS011;4958;48.150;11.506;2022-08-21T13:37:56;2.08;;;1.90;;
9838;SDS011;4958;48.150;11.506;2022-08-21T13:40:25;2.30;;;2.10;;
9838;SDS011;4958;48.150;11.506;2022-08-21T13:42:53;2.28;;;2.08;;
9838;SDS011;4958;48.150;11.506;2022-08-21T13:45:23;2.22;;;1.98;;
9838;SDS011;4958;48.150;11.506;2022-08-21T13:47:53;2.20;;;2.00;;
9838;SDS011;4958;48.150;11.506;2022-08-21T13:50:22;4.95;;;2.25;;
9838;SDS011;4958;48.150;11.506;2022-08-21T13:52:55;3.15;;;2.10;;
9838;SDS011;4958;48.150;11.506;2022-08-21T13:55:25;2.67;;;1.90;;
9838;SDS011;4958;48.150;11.506;2022-08-21T13:58:00;2.30;;;2.10;;
9838;SDS011;4958;48.150;11.506;2022-08-21T14:00:30;2.30;;;2.08;;
9838;SDS011;4958;48.150;11.506;2022-08-21T14:03:00;2.38;;;2.17;;
9838;SDS011;4958;48.150;11.506;2022-08-21T14:05:32;2.50;;;2.30;;
9838;SDS011;4958;48.150;11.506;2022-08-21T14:08:02;2.38;;;2.10;;
9838;SDS011;4958;48.150;11.506;2022-08-21T14:10:31;2.78;;;2.28;;
9838;SDS011;4958;48.150;11.506;2022-08-21T14:13:02;2.10;;;1.90;;
9838;SDS011;4958;48.150;11.506;2022-08-21T14:15:35;2.22;;;1.90;;
9838;SDS011;4958;48.150;11.506;2022-08-21T14:18:08;3.92;;;2.20;;
9838;SDS011;4958;48.150;11.506;2022-08-21T14:20:40;2.42;;;2.13;;
9838;SDS011;4958;48.150;11.506;2022-08-21T14:23:06;7.13;;;6.53;;
9838;SDS011;4958;48.150;11.506;2022-08-21T14:25:37;6.35;;;5.85;;
9838;SDS011;4958;48.150;11.506;2022-08-21T14:28:10;2.53;;;2.33;;
9838;SDS011;4958;48.150;11.506;2022-08-21T14:30:46;2.78;;;2.13;;
9838;SDS011;4958;48.150;11.506;2022-08-21T14:33:24;2.83;;;2.20;;
9838;SDS011;4958;48.150;11.506;2022-08-21T14:35:53;2.58;;;2.38;;
9838;SDS011;4958;48.150;11.506;2022-08-21T14:38:20;2.67;;;2.30;;
9838;SDS011;4958;48.150;11.506;2022-08-21T14:40:53;3.05;;;2.28;;
9838;SDS011;4958;48.150;11.506;2022-08-21T14:43:21;3.25;;;2.25;;
9838;SDS011;4958;48.150;11.506;2022-08-21T14:45:50;3.17;;;2.30;;
9838;SDS011;4958;48.150;11.506;2022-08-21T14:48:17;3.80;;;2.45;;
9838;SDS011;4958;48.150;11.506;2022-08-21T14:50:43;3.30;;;2.30;;
9838;SDS011;4958;48.150;11.506;2022-08-21T14:53:09;2.42;;;2.22;;
9838;SDS011;4958;48.150;11.506;2022-08-21T14:55:36;2.58;;;2.38;;
9838;SDS011;4958;48.150;11.506;2022-08-21T14:58:17;5.20;;;2.55;;
9838;SDS011;4958;48.150;11.506;2022-08-21T15:00:44;2.30;;;2.10;;
9838;SDS011;4958;48.150;11.506;2022-08-21T15:03:12;4.10;;;2.33;;
9838;SDS011;4958;48.150;11.506;2022-08-21T15:05:38;2.60;;;2.35;;
9838;SDS011;4958;48.150;11.506;2022-08-21T15:08:04;3.15;;;2.90;;
9838;SDS011;4958;48.150;11.506;2022-08-21T15:10:31;3.72;;;2.75;;
9838;SDS011;4958;48.150;11.506;2022-08-21T15:12:59;3.67;;;3.17;;
9838;SDS011;4958;48.150;11.506;2022-08-21T15:15:27;5.03;;;3.00;;
9838;SDS011;4958;48.150;11.506;2022-08-21T15:17:54;3.55;;;2.88;;